Aviation Digital Data Service (ADDS)

Output produced by METARs form (2112 UTC 13 November 2019)
found at http://www.aviationweather.gov/metar/data/
 
METAR text: EDDV 132050Z VRB02KT 9999 FEW020 BKN048 06/03 Q1002 NOSIG
Conditions at: EDDV (HANNOVER , DE) observed 2050 UTC 13 November 2019
Temperature: 6.0°C (43°F)
Dewpoint: 3.0°C (37°F) [RH = 81%]
Pressure (altimeter): 29.59 inches Hg (1002.0 mb)
Winds: variable direction winds at 2 MPH (2 knots; 1.0 m/s)
Visibility: 6 or more miles (10+ km)
Ceiling: 4800 feet AGL
Clouds: few clouds at 2000 feet AGL
broken clouds at 4800 feet AGL
Weather: no significant weather observed at this time

METAR text: EDDV 132020Z 20004KT 160V230 9999 BKN048 06/03 Q1002 NOSIG
Conditions at: EDDV (HANNOVER , DE) observed 2020 UTC 13 November 2019
Temperature: 6.0°C (43°F)
Dewpoint: 3.0°C (37°F) [RH = 81%]
Pressure (altimeter): 29.59 inches Hg (1002.0 mb)
Winds: from the SSW (200 degrees) at 5 MPH (4 knots; 2.1 m/s)
Visibility: 6 or more miles (10+ km)
Ceiling: 4800 feet AGL
Clouds: broken clouds at 4800 feet AGL
Weather: no significant weather observed at this time

METAR text: EDDV 131950Z 20005KT 160V230 9999 BKN048 06/03 Q1002 NOSIG
Conditions at: EDDV (HANNOVER , DE) observed 1950 UTC 13 November 2019
Temperature: 6.0°C (43°F)
Dewpoint: 3.0°C (37°F) [RH = 81%]
Pressure (altimeter): 29.59 inches Hg (1002.0 mb)
Winds: from the SSW (200 degrees) at 6 MPH (5 knots; 2.6 m/s)
Visibility: 6 or more miles (10+ km)
Ceiling: 4800 feet AGL
Clouds: broken clouds at 4800 feet AGL
Weather: no significant weather observed at this time

METAR text: EDDV 131920Z 17005KT 140V210 9999 BKN046 06/03 Q1002 NOSIG
Conditions at: EDDV (HANNOVER , DE) observed 1920 UTC 13 November 2019
Temperature: 6.0°C (43°F)
Dewpoint: 3.0°C (37°F) [RH = 81%]
Pressure (altimeter): 29.59 inches Hg (1002.0 mb)
Winds: from the S (170 degrees) at 6 MPH (5 knots; 2.6 m/s)
Visibility: 6 or more miles (10+ km)
Ceiling: 4600 feet AGL
Clouds: broken clouds at 4600 feet AGL
Weather: no significant weather observed at this time

METAR text: EDDV 131850Z 19005KT 9999 SCT042 05/03 Q1002 NOSIG
Conditions at: EDDV (HANNOVER , DE) observed 1850 UTC 13 November 2019
Temperature: 5.0°C (41°F)
Dewpoint: 3.0°C (37°F) [RH = 87%]
Pressure (altimeter): 29.59 inches Hg (1002.0 mb)
Winds: from the S (190 degrees) at 6 MPH (5 knots; 2.6 m/s)
Visibility: 6 or more miles (10+ km)
Ceiling: at least 12,000 feet AGL
Clouds: scattered clouds at 4200 feet AGL
Weather: no significant weather observed at this time

METAR text: EDDV 131820Z 20005KT 170V230 9999 FEW035 SCT042 05/03 Q1001 NOSIG
Conditions at: EDDV (HANNOVER , DE) observed 1820 UTC 13 November 2019
Temperature: 5.0°C (41°F)
Dewpoint: 3.0°C (37°F) [RH = 87%]
Pressure (altimeter): 29.56 inches Hg (1001.0 mb)
Winds: from the SSW (200 degrees) at 6 MPH (5 knots; 2.6 m/s)
Visibility: 6 or more miles (10+ km)
Ceiling: at least 12,000 feet AGL
Clouds: few clouds at 3500 feet AGL
scattered clouds at 4200 feet AGL
Weather: no significant weather observed at this time

METAR text: EDDV 131750Z 19005KT 150V220 9999 BKN038 06/03 Q1001 NOSIG
Conditions at: EDDV (HANNOVER , DE) observed 1750 UTC 13 November 2019
Temperature: 6.0°C (43°F)
Dewpoint: 3.0°C (37°F) [RH = 81%]
Pressure (altimeter): 29.56 inches Hg (1001.0 mb)
Winds: from the S (190 degrees) at 6 MPH (5 knots; 2.6 m/s)
Visibility: 6 or more miles (10+ km)
Ceiling: 3800 feet AGL
Clouds: broken clouds at 3800 feet AGL
Weather: no significant weather observed at this time

METAR text: EDDV 131720Z 18006KT 9999 FEW018 BKN035 06/03 Q1001 NOSIG
Conditions at: EDDV (HANNOVER , DE) observed 1720 UTC 13 November 2019
Temperature: 6.0°C (43°F)
Dewpoint: 3.0°C (37°F) [RH = 81%]
Pressure (altimeter): 29.56 inches Hg (1001.0 mb)
Winds: from the S (180 degrees) at 7 MPH (6 knots; 3.1 m/s)
Visibility: 6 or more miles (10+ km)
Ceiling: 3500 feet AGL
Clouds: few clouds at 1800 feet AGL
broken clouds at 3500 feet AGL
Weather: no significant weather observed at this time

METAR text: EDDV 131650Z 20006KT 160V230 9999 BKN018 06/03 Q1001 NOSIG
Conditions at: EDDV (HANNOVER , DE) observed 1650 UTC 13 November 2019
Temperature: 6.0°C (43°F)
Dewpoint: 3.0°C (37°F) [RH = 81%]
Pressure (altimeter): 29.56 inches Hg (1001.0 mb)
Winds: from the SSW (200 degrees) at 7 MPH (6 knots; 3.1 m/s)
Visibility: 6 or more miles (10+ km)
Ceiling: 1800 feet AGL
Clouds: broken clouds at 1800 feet AGL
Weather: no significant weather observed at this time

METAR text: EDDV 131620Z 19006KT 160V220 9999 BKN018 06/03 Q1001 NOSIG
Conditions at: EDDV (HANNOVER , DE) observed 1620 UTC 13 November 2019
Temperature: 6.0°C (43°F)
Dewpoint: 3.0°C (37°F) [RH = 81%]
Pressure (altimeter): 29.56 inches Hg (1001.0 mb)
Winds: from the S (190 degrees) at 7 MPH (6 knots; 3.1 m/s)
Visibility: 6 or more miles (10+ km)
Ceiling: 1800 feet AGL
Clouds: broken clouds at 1800 feet AGL
Weather: no significant weather observed at this time

METAR text: EDDV 131550Z 20006KT 160V230 9999 BKN018 06/03 Q1001 NOSIG
Conditions at: EDDV (HANNOVER , DE) observed 1550 UTC 13 November 2019
Temperature: 6.0°C (43°F)
Dewpoint: 3.0°C (37°F) [RH = 81%]
Pressure (altimeter): 29.56 inches Hg (1001.0 mb)
Winds: from the SSW (200 degrees) at 7 MPH (6 knots; 3.1 m/s)
Visibility: 6 or more miles (10+ km)
Ceiling: 1800 feet AGL
Clouds: broken clouds at 1800 feet AGL
Weather: no significant weather observed at this time

METAR text: EDDV 131520Z 20008KT 160V230 9999 BKN020 06/03 Q1001 NOSIG
Conditions at: EDDV (HANNOVER , DE) observed 1520 UTC 13 November 2019
Temperature: 6.0°C (43°F)
Dewpoint: 3.0°C (37°F) [RH = 81%]
Pressure (altimeter): 29.56 inches Hg (1001.0 mb)
Winds: from the SSW (200 degrees) at 9 MPH (8 knots; 4.1 m/s)
Visibility: 6 or more miles (10+ km)
Ceiling: 2000 feet AGL
Clouds: broken clouds at 2000 feet AGL
Weather: no significant weather observed at this time

METAR text: EDDV 131450Z 21008KT 180V240 9999 BKN020 06/03 Q1000 NOSIG
Conditions at: EDDV (HANNOVER , DE) observed 1450 UTC 13 November 2019
Temperature: 6.0°C (43°F)
Dewpoint: 3.0°C (37°F) [RH = 81%]
Pressure (altimeter): 29.53 inches Hg (1000.0 mb)
Winds: from the SSW (210 degrees) at 9 MPH (8 knots; 4.1 m/s)
Visibility: 6 or more miles (10+ km)
Ceiling: 2000 feet AGL
Clouds: broken clouds at 2000 feet AGL
Weather: no significant weather observed at this time

METAR text: EDDV 131420Z 20007KT 150V240 9999 BKN020 06/03 Q1000 NOSIG
Conditions at: EDDV (HANNOVER , DE) observed 1420 UTC 13 November 2019
Temperature: 6.0°C (43°F)
Dewpoint: 3.0°C (37°F) [RH = 81%]
Pressure (altimeter): 29.53 inches Hg (1000.0 mb)
Winds: from the SSW (200 degrees) at 8 MPH (7 knots; 3.6 m/s)
Visibility: 6 or more miles (10+ km)
Ceiling: 2000 feet AGL
Clouds: broken clouds at 2000 feet AGL
Weather: no significant weather observed at this time

METAR text: EDDV 131350Z 21010KT 170V230 9999 BKN020 06/03 Q1000 NOSIG
Conditions at: EDDV (HANNOVER , DE) observed 1350 UTC 13 November 2019
Temperature: 6.0°C (43°F)
Dewpoint: 3.0°C (37°F) [RH = 81%]
Pressure (altimeter): 29.53 inches Hg (1000.0 mb)
Winds: from the SSW (210 degrees) at 12 MPH (10 knots; 5.1 m/s)
Visibility: 6 or more miles (10+ km)
Ceiling: 2000 feet AGL
Clouds: broken clouds at 2000 feet AGL
Weather: no significant weather observed at this time

METAR text: EDDV 131320Z 20008KT 170V230 9999 BKN020 06/02 Q1000 NOSIG
Conditions at: EDDV (HANNOVER , DE) observed 1320 UTC 13 November 2019
Temperature: 6.0°C (43°F)
Dewpoint: 2.0°C (36°F) [RH = 75%]
Pressure (altimeter): 29.53 inches Hg (1000.0 mb)
Winds: from the SSW (200 degrees) at 9 MPH (8 knots; 4.1 m/s)
Visibility: 6 or more miles (10+ km)
Ceiling: 2000 feet AGL
Clouds: broken clouds at 2000 feet AGL
Weather: no significant weather observed at this time

METAR text: EDDV 131250Z 20008KT 160V250 9999 BKN020 06/02 Q1000 NOSIG
Conditions at: EDDV (HANNOVER , DE) observed 1250 UTC 13 November 2019
Temperature: 6.0°C (43°F)
Dewpoint: 2.0°C (36°F) [RH = 75%]
Pressure (altimeter): 29.53 inches Hg (1000.0 mb)
Winds: from the SSW (200 degrees) at 9 MPH (8 knots; 4.1 m/s)
Visibility: 6 or more miles (10+ km)
Ceiling: 2000 feet AGL
Clouds: broken clouds at 2000 feet AGL
Weather: no significant weather observed at this time

METAR text: EDDV 131220Z 20009KT 160V240 9999 FEW020 BKN021 06/02 Q1000 NOSIG
Conditions at: EDDV (HANNOVER , DE) observed 1220 UTC 13 November 2019
Temperature: 6.0°C (43°F)
Dewpoint: 2.0°C (36°F) [RH = 75%]
Pressure (altimeter): 29.53 inches Hg (1000.0 mb)
Winds: from the SSW (200 degrees) at 10 MPH (9 knots; 4.6 m/s)
Visibility: 6 or more miles (10+ km)
Ceiling: 2100 feet AGL
Clouds: few clouds at 2000 feet AGL
broken clouds at 2100 feet AGL
Weather: no significant weather observed at this time

METAR text: EDDV 131150Z 20008KT 160V230 9999 FEW020 BKN022 06/02 Q1000 NOSIG
Conditions at: EDDV (HANNOVER , DE) observed 1150 UTC 13 November 2019
Temperature: 6.0°C (43°F)
Dewpoint: 2.0°C (36°F) [RH = 75%]
Pressure (altimeter): 29.53 inches Hg (1000.0 mb)
Winds: from the SSW (200 degrees) at 9 MPH (8 knots; 4.1 m/s)
Visibility: 6 or more miles (10+ km)
Ceiling: 2200 feet AGL
Clouds: few clouds at 2000 feet AGL
broken clouds at 2200 feet AGL
Weather: no significant weather observed at this time

METAR text: EDDV 131120Z 21010KT 180V240 9999 FEW022 BKN042 06/02 Q1000 NOSIG
Conditions at: EDDV (HANNOVER , DE) observed 1120 UTC 13 November 2019
Temperature: 6.0°C (43°F)
Dewpoint: 2.0°C (36°F) [RH = 75%]
Pressure (altimeter): 29.53 inches Hg (1000.0 mb)
Winds: from the SSW (210 degrees) at 12 MPH (10 knots; 5.1 m/s)
Visibility: 6 or more miles (10+ km)
Ceiling: 4200 feet AGL
Clouds: few clouds at 2200 feet AGL
broken clouds at 4200 feet AGL
Weather: no significant weather observed at this time

METAR text: EDDV 131050Z 21010KT 9999 FEW024 BKN041 06/02 Q1000 NOSIG
Conditions at: EDDV (HANNOVER , DE) observed 1050 UTC 13 November 2019
Temperature: 6.0°C (43°F)
Dewpoint: 2.0°C (36°F) [RH = 75%]
Pressure (altimeter): 29.53 inches Hg (1000.0 mb)
Winds: from the SSW (210 degrees) at 12 MPH (10 knots; 5.1 m/s)
Visibility: 6 or more miles (10+ km)
Ceiling: 4100 feet AGL
Clouds: few clouds at 2400 feet AGL
broken clouds at 4100 feet AGL
Weather: no significant weather observed at this time

METAR text: EDDV 131020Z 21011KT 9999 FEW024 BKN043 05/01 Q1000 NOSIG
Conditions at: EDDV (HANNOVER , DE) observed 1020 UTC 13 November 2019
Temperature: 5.0°C (41°F)
Dewpoint: 1.0°C (34°F) [RH = 75%]
Pressure (altimeter): 29.53 inches Hg (1000.0 mb)
Winds: from the SSW (210 degrees) at 13 MPH (11 knots; 5.7 m/s)
Visibility: 6 or more miles (10+ km)
Ceiling: 4300 feet AGL
Clouds: few clouds at 2400 feet AGL
broken clouds at 4300 feet AGL
Weather: no significant weather observed at this time

METAR text: EDDV 130950Z 19010KT 160V220 9999 SCT024 BKN043 05/01 Q1000 NOSIG
Conditions at: EDDV (HANNOVER , DE) observed 0950 UTC 13 November 2019
Temperature: 5.0°C (41°F)
Dewpoint: 1.0°C (34°F) [RH = 75%]
Pressure (altimeter): 29.53 inches Hg (1000.0 mb)
Winds: from the S (190 degrees) at 12 MPH (10 knots; 5.1 m/s)
Visibility: 6 or more miles (10+ km)
Ceiling: 4300 feet AGL
Clouds: scattered clouds at 2400 feet AGL
broken clouds at 4300 feet AGL
Weather: no significant weather observed at this time

METAR text: EDDV 130920Z 18010KT 150V210 9999 SCT028 SCT038 05/01 Q1000 NOSIG
Conditions at: EDDV (HANNOVER , DE) observed 0920 UTC 13 November 2019
Temperature: 5.0°C (41°F)
Dewpoint: 1.0°C (34°F) [RH = 75%]
Pressure (altimeter): 29.53 inches Hg (1000.0 mb)
Winds: from the S (180 degrees) at 12 MPH (10 knots; 5.1 m/s)
Visibility: 6 or more miles (10+ km)
Ceiling: at least 12,000 feet AGL
Clouds: scattered clouds at 2800 feet AGL
scattered clouds at 3800 feet AGL
Weather: no significant weather observed at this time

METAR text: EDDV 130850Z 19008KT 150V230 9999 SCT025 05/01 Q1000 NOSIG
Conditions at: EDDV (HANNOVER , DE) observed 0850 UTC 13 November 2019
Temperature: 5.0°C (41°F)
Dewpoint: 1.0°C (34°F) [RH = 75%]
Pressure (altimeter): 29.53 inches Hg (1000.0 mb)
Winds: from the S (190 degrees) at 9 MPH (8 knots; 4.1 m/s)
Visibility: 6 or more miles (10+ km)
Ceiling: at least 12,000 feet AGL
Clouds: scattered clouds at 2500 feet AGL
Weather: no significant weather observed at this time

METAR text: EDDV 130820Z 17007KT 130V220 9999 FEW025 04/00 Q1000 NOSIG
Conditions at: EDDV (HANNOVER , DE) observed 0820 UTC 13 November 2019
Temperature: 4.0°C (39°F)
Dewpoint: 0.0°C (32°F) [RH = 75%]
Pressure (altimeter): 29.53 inches Hg (1000.0 mb)
Winds: from the S (170 degrees) at 8 MPH (7 knots; 3.6 m/s)
Visibility: 6 or more miles (10+ km)
Ceiling: at least 12,000 feet AGL
Clouds: few clouds at 2500 feet AGL
Weather: no significant weather observed at this time

METAR text: EDDV 130750Z 18008KT 150V210 9999 FEW029 03/00 Q1000 NOSIG
Conditions at: EDDV (HANNOVER , DE) observed 0750 UTC 13 November 2019
Temperature: 3.0°C (37°F)
Dewpoint: 0.0°C (32°F) [RH = 81%]
Pressure (altimeter): 29.53 inches Hg (1000.0 mb)
Winds: from the S (180 degrees) at 9 MPH (8 knots; 4.1 m/s)
Visibility: 6 or more miles (10+ km)
Ceiling: at least 12,000 feet AGL
Clouds: few clouds at 2900 feet AGL
Weather: no significant weather observed at this time

METAR text: EDDV 130720Z 19006KT 160V230 CAVOK 03/M00 Q1000 NOSIG
Conditions at: EDDV (HANNOVER , DE) observed 0720 UTC 13 November 2019
Temperature: 3.0°C (37°F)
Dewpoint: 0.0°C (32°F) [RH = 81%]
Pressure (altimeter): 29.53 inches Hg (1000.0 mb)
Winds: from the S (190 degrees) at 7 MPH (6 knots; 3.1 m/s)
Visibility: 6 or more miles (10+ km)
Ceiling: ceiling and visibility are OK
Clouds: unknown
Weather: no significant weather observed at this time

METAR text: EDDV 130650Z 18005KT 150V220 CAVOK 03/M00 Q1000 NOSIG
Conditions at: EDDV (HANNOVER , DE) observed 0650 UTC 13 November 2019
Temperature: 3.0°C (37°F)
Dewpoint: 0.0°C (32°F) [RH = 81%]
Pressure (altimeter): 29.53 inches Hg (1000.0 mb)
Winds: from the S (180 degrees) at 6 MPH (5 knots; 2.6 m/s)
Visibility: 6 or more miles (10+ km)
Ceiling: ceiling and visibility are OK
Clouds: unknown
Weather: no significant weather observed at this time

METAR text: EDDV 130620Z 16004KT 120V200 CAVOK 03/00 Q1000 NOSIG
Conditions at: EDDV (HANNOVER , DE) observed 0620 UTC 13 November 2019
Temperature: 3.0°C (37°F)
Dewpoint: 0.0°C (32°F) [RH = 81%]
Pressure (altimeter): 29.53 inches Hg (1000.0 mb)
Winds: from the SSE (160 degrees) at 5 MPH (4 knots; 2.1 m/s)
Visibility: 6 or more miles (10+ km)
Ceiling: ceiling and visibility are OK
Clouds: unknown
Weather: no significant weather observed at this time

METAR text: EDDV 130550Z 14004KT 100V220 CAVOK 03/00 Q1000 NOSIG
Conditions at: EDDV (HANNOVER , DE) observed 0550 UTC 13 November 2019
Temperature: 3.0°C (37°F)
Dewpoint: 0.0°C (32°F) [RH = 81%]
Pressure (altimeter): 29.53 inches Hg (1000.0 mb)
Winds: from the SE (140 degrees) at 5 MPH (4 knots; 2.1 m/s)
Visibility: 6 or more miles (10+ km)
Ceiling: ceiling and visibility are OK
Clouds: unknown
Weather: no significant weather observed at this time

METAR text: EDDV 130520Z 17006KT 140V210 CAVOK 03/M00 Q1000 NOSIG
Conditions at: EDDV (HANNOVER , DE) observed 0520 UTC 13 November 2019
Temperature: 3.0°C (37°F)
Dewpoint: 0.0°C (32°F) [RH = 81%]
Pressure (altimeter): 29.53 inches Hg (1000.0 mb)
Winds: from the S (170 degrees) at 7 MPH (6 knots; 3.1 m/s)
Visibility: 6 or more miles (10+ km)
Ceiling: ceiling and visibility are OK
Clouds: unknown
Weather: no significant weather observed at this time

METAR text: EDDV 130450Z 18006KT CAVOK 02/00 Q1000 NOSIG
Conditions at: EDDV (HANNOVER , DE) observed 0450 UTC 13 November 2019
Temperature: 2.0°C (36°F)
Dewpoint: 0.0°C (32°F) [RH = 87%]
Pressure (altimeter): 29.53 inches Hg (1000.0 mb)
Winds: from the S (180 degrees) at 7 MPH (6 knots; 3.1 m/s)
Visibility: 6 or more miles (10+ km)
Ceiling: ceiling and visibility are OK
Clouds: unknown
Weather: no significant weather observed at this time

METAR text: EDDV 130420Z 17005KT 130V200 CAVOK 03/00 Q1000 NOSIG
Conditions at: EDDV (HANNOVER , DE) observed 0420 UTC 13 November 2019
Temperature: 3.0°C (37°F)
Dewpoint: 0.0°C (32°F) [RH = 81%]
Pressure (altimeter): 29.53 inches Hg (1000.0 mb)
Winds: from the S (170 degrees) at 6 MPH (5 knots; 2.6 m/s)
Visibility: 6 or more miles (10+ km)
Ceiling: ceiling and visibility are OK
Clouds: unknown
Weather: no significant weather observed at this time

METAR text: EDDV 130350Z 14004KT 100V180 CAVOK 03/00 Q1000 NOSIG
Conditions at: EDDV (HANNOVER , DE) observed 0350 UTC 13 November 2019
Temperature: 3.0°C (37°F)
Dewpoint: 0.0°C (32°F) [RH = 81%]
Pressure (altimeter): 29.53 inches Hg (1000.0 mb)
Winds: from the SE (140 degrees) at 5 MPH (4 knots; 2.1 m/s)
Visibility: 6 or more miles (10+ km)
Ceiling: ceiling and visibility are OK
Clouds: unknown
Weather: no significant weather observed at this time

METAR text: EDDV 130320Z 16004KT 080V200 CAVOK 03/00 Q1000
Conditions at: EDDV (HANNOVER , DE) observed 0320 UTC 13 November 2019
Temperature: 3.0°C (37°F)
Dewpoint: 0.0°C (32°F) [RH = 81%]
Pressure (altimeter): 29.53 inches Hg (1000.0 mb)
Winds: from the SSE (160 degrees) at 5 MPH (4 knots; 2.1 m/s)
Visibility: 6 or more miles (10+ km)
Ceiling: ceiling and visibility are OK
Clouds: unknown
Weather: no significant weather observed at this time

METAR text: EDDV 130250Z 15004KT 100V210 CAVOK 03/00 Q1000
Conditions at: EDDV (HANNOVER , DE) observed 0250 UTC 13 November 2019
Temperature: 3.0°C (37°F)
Dewpoint: 0.0°C (32°F) [RH = 81%]
Pressure (altimeter): 29.53 inches Hg (1000.0 mb)
Winds: from the SSE (150 degrees) at 5 MPH (4 knots; 2.1 m/s)
Visibility: 6 or more miles (10+ km)
Ceiling: ceiling and visibility are OK
Clouds: unknown
Weather: no significant weather observed at this time

METAR text: EDDV 130220Z 15003KT 080V190 CAVOK 03/01 Q1000
Conditions at: EDDV (HANNOVER , DE) observed 0220 UTC 13 November 2019
Temperature: 3.0°C (37°F)
Dewpoint: 1.0°C (34°F) [RH = 87%]
Pressure (altimeter): 29.53 inches Hg (1000.0 mb)
Winds: from the SSE (150 degrees) at 3 MPH (3 knots; 1.5 m/s)
Visibility: 6 or more miles (10+ km)
Ceiling: ceiling and visibility are OK
Clouds: unknown
Weather: no significant weather observed at this time

METAR text: EDDV 130150Z 15004KT 110V180 CAVOK 03/01 Q1000
Conditions at: EDDV (HANNOVER , DE) observed 0150 UTC 13 November 2019
Temperature: 3.0°C (37°F)
Dewpoint: 1.0°C (34°F) [RH = 87%]
Pressure (altimeter): 29.53 inches Hg (1000.0 mb)
Winds: from the SSE (150 degrees) at 5 MPH (4 knots; 2.1 m/s)
Visibility: 6 or more miles (10+ km)
Ceiling: ceiling and visibility are OK
Clouds: unknown
Weather: no significant weather observed at this time

METAR text: EDDV 130120Z 17005KT CAVOK 03/01 Q1000
Conditions at: EDDV (HANNOVER , DE) observed 0120 UTC 13 November 2019
Temperature: 3.0°C (37°F)
Dewpoint: 1.0°C (34°F) [RH = 87%]
Pressure (altimeter): 29.53 inches Hg (1000.0 mb)
Winds: from the S (170 degrees) at 6 MPH (5 knots; 2.6 m/s)
Visibility: 6 or more miles (10+ km)
Ceiling: ceiling and visibility are OK
Clouds: unknown
Weather: no significant weather observed at this time

METAR text: EDDV 130050Z 18003KT 150V220 CAVOK 03/01 Q1000
Conditions at: EDDV (HANNOVER , DE) observed 0050 UTC 13 November 2019
Temperature: 3.0°C (37°F)
Dewpoint: 1.0°C (34°F) [RH = 87%]
Pressure (altimeter): 29.53 inches Hg (1000.0 mb)
Winds: from the S (180 degrees) at 3 MPH (3 knots; 1.5 m/s)
Visibility: 6 or more miles (10+ km)
Ceiling: ceiling and visibility are OK
Clouds: unknown
Weather: no significant weather observed at this time

METAR text: EDDV 130020Z 24006KT CAVOK 03/01 Q1000
Conditions at: EDDV (HANNOVER , DE) observed 0020 UTC 13 November 2019
Temperature: 3.0°C (37°F)
Dewpoint: 1.0°C (34°F) [RH = 87%]
Pressure (altimeter): 29.53 inches Hg (1000.0 mb)
Winds: from the WSW (240 degrees) at 7 MPH (6 knots; 3.1 m/s)
Visibility: 6 or more miles (10+ km)
Ceiling: ceiling and visibility are OK
Clouds: unknown
Weather: no significant weather observed at this time

METAR text: EDDV 122350Z 20005KT 170V230 CAVOK 03/02 Q1001
Conditions at: EDDV (HANNOVER , DE) observed 2350 UTC 12 November 2019
Temperature: 3.0°C (37°F)
Dewpoint: 2.0°C (36°F) [RH = 93%]
Pressure (altimeter): 29.56 inches Hg (1001.0 mb)
Winds: from the SSW (200 degrees) at 6 MPH (5 knots; 2.6 m/s)
Visibility: 6 or more miles (10+ km)
Ceiling: ceiling and visibility are OK
Clouds: unknown
Weather: no significant weather observed at this time

METAR text: EDDV 122320Z 19004KT 170V230 CAVOK 03/01 Q1001
Conditions at: EDDV (HANNOVER , DE) observed 2320 UTC 12 November 2019
Temperature: 3.0°C (37°F)
Dewpoint: 1.0°C (34°F) [RH = 87%]
Pressure (altimeter): 29.56 inches Hg (1001.0 mb)
Winds: from the S (190 degrees) at 5 MPH (4 knots; 2.1 m/s)
Visibility: 6 or more miles (10+ km)
Ceiling: ceiling and visibility are OK
Clouds: unknown
Weather: no significant weather observed at this time

METAR text: EDDV 122250Z 16003KT 110V210 CAVOK 04/02 Q1001
Conditions at: EDDV (HANNOVER , DE) observed 2250 UTC 12 November 2019
Temperature: 4.0°C (39°F)
Dewpoint: 2.0°C (36°F) [RH = 87%]
Pressure (altimeter): 29.56 inches Hg (1001.0 mb)
Winds: from the SSE (160 degrees) at 3 MPH (3 knots; 1.5 m/s)
Visibility: 6 or more miles (10+ km)
Ceiling: ceiling and visibility are OK
Clouds: unknown
Weather: no significant weather observed at this time

METAR text: EDDV 122220Z 16004KT 110V190 CAVOK 04/02 Q1001
Conditions at: EDDV (HANNOVER , DE) observed 2220 UTC 12 November 2019
Temperature: 4.0°C (39°F)
Dewpoint: 2.0°C (36°F) [RH = 87%]
Pressure (altimeter): 29.56 inches Hg (1001.0 mb)
Winds: from the SSE (160 degrees) at 5 MPH (4 knots; 2.1 m/s)
Visibility: 6 or more miles (10+ km)
Ceiling: ceiling and visibility are OK
Clouds: unknown
Weather: no significant weather observed at this time

METAR text: EDDV 122150Z VRB02KT CAVOK 04/02 Q1002
Conditions at: EDDV (HANNOVER , DE) observed 2150 UTC 12 November 2019
Temperature: 4.0°C (39°F)
Dewpoint: 2.0°C (36°F) [RH = 87%]
Pressure (altimeter): 29.59 inches Hg (1002.0 mb)
Winds: variable direction winds at 2 MPH (2 knots; 1.0 m/s)
Visibility: 6 or more miles (10+ km)
Ceiling: ceiling and visibility are OK
Clouds: unknown
Weather: no significant weather observed at this time

METAR text: EDDV 122120Z 17007KT 9999 FEW030 04/02 Q1002
Conditions at: EDDV (HANNOVER , DE) observed 2120 UTC 12 November 2019
Temperature: 4.0°C (39°F)
Dewpoint: 2.0°C (36°F) [RH = 87%]
Pressure (altimeter): 29.59 inches Hg (1002.0 mb)
Winds: from the S (170 degrees) at 8 MPH (7 knots; 3.6 m/s)
Visibility: 6 or more miles (10+ km)
Ceiling: at least 12,000 feet AGL
Clouds: few clouds at 3000 feet AGL
Weather: no significant weather observed at this time

METAR text: EDDV 122050Z 17005KT 140V210 9999 FEW030 05/02 Q1002 NOSIG
Conditions at: EDDV (HANNOVER , DE) observed 2050 UTC 12 November 2019
Temperature: 5.0°C (41°F)
Dewpoint: 2.0°C (36°F) [RH = 81%]
Pressure (altimeter): 29.59 inches Hg (1002.0 mb)
Winds: from the S (170 degrees) at 6 MPH (5 knots; 2.6 m/s)
Visibility: 6 or more miles (10+ km)
Ceiling: at least 12,000 feet AGL
Clouds: few clouds at 3000 feet AGL
Weather: no significant weather observed at this time

METAR text: EDDV 122020Z 18005KT 9999 FEW023 SCT033 05/02 Q1002 NOSIG
Conditions at: EDDV (HANNOVER , DE) observed 2020 UTC 12 November 2019
Temperature: 5.0°C (41°F)
Dewpoint: 2.0°C (36°F) [RH = 81%]
Pressure (altimeter): 29.59 inches Hg (1002.0 mb)
Winds: from the S (180 degrees) at 6 MPH (5 knots; 2.6 m/s)
Visibility: 6 or more miles (10+ km)
Ceiling: at least 12,000 feet AGL
Clouds: few clouds at 2300 feet AGL
scattered clouds at 3300 feet AGL
Weather: no significant weather observed at this time

METAR text: EDDV 121950Z 17004KT 9999 FEW021 SCT031 05/02 Q1001 NOSIG
Conditions at: EDDV (HANNOVER , DE) observed 1950 UTC 12 November 2019
Temperature: 5.0°C (41°F)
Dewpoint: 2.0°C (36°F) [RH = 81%]
Pressure (altimeter): 29.56 inches Hg (1001.0 mb)
Winds: from the S (170 degrees) at 5 MPH (4 knots; 2.1 m/s)
Visibility: 6 or more miles (10+ km)
Ceiling: at least 12,000 feet AGL
Clouds: few clouds at 2100 feet AGL
scattered clouds at 3100 feet AGL
Weather: no significant weather observed at this time

METAR text: EDDV 121920Z 18004KT 150V210 9999 FEW027 BKN044 05/02 Q1001 NOSIG
Conditions at: EDDV (HANNOVER , DE) observed 1920 UTC 12 November 2019
Temperature: 5.0°C (41°F)
Dewpoint: 2.0°C (36°F) [RH = 81%]
Pressure (altimeter): 29.56 inches Hg (1001.0 mb)
Winds: from the S (180 degrees) at 5 MPH (4 knots; 2.1 m/s)
Visibility: 6 or more miles (10+ km)
Ceiling: 4400 feet AGL
Clouds: few clouds at 2700 feet AGL
broken clouds at 4400 feet AGL
Weather: no significant weather observed at this time

METAR text: EDDV 121850Z 19005KT 160V230 9999 BKN040 05/02 Q1001 NOSIG
Conditions at: EDDV (HANNOVER , DE) observed 1850 UTC 12 November 2019
Temperature: 5.0°C (41°F)
Dewpoint: 2.0°C (36°F) [RH = 81%]
Pressure (altimeter): 29.56 inches Hg (1001.0 mb)
Winds: from the S (190 degrees) at 6 MPH (5 knots; 2.6 m/s)
Visibility: 6 or more miles (10+ km)
Ceiling: 4000 feet AGL
Clouds: broken clouds at 4000 feet AGL
Weather: no significant weather observed at this time

METAR text: EDDV 121820Z 23004KT 200V290 9999 SCT019 BKN048 06/03 Q1001 NOSIG
Conditions at: EDDV (HANNOVER , DE) observed 1820 UTC 12 November 2019
Temperature: 6.0°C (43°F)
Dewpoint: 3.0°C (37°F) [RH = 81%]
Pressure (altimeter): 29.56 inches Hg (1001.0 mb)
Winds: from the SW (230 degrees) at 5 MPH (4 knots; 2.1 m/s)
Visibility: 6 or more miles (10+ km)
Ceiling: 4800 feet AGL
Clouds: scattered clouds at 1900 feet AGL
broken clouds at 4800 feet AGL
Weather: no significant weather observed at this time

METAR text: EDDV 121750Z 20008KT 9999 SCT025 SCT040 06/03 Q1001 NOSIG
Conditions at: EDDV (HANNOVER , DE) observed 1750 UTC 12 November 2019
Temperature: 6.0°C (43°F)
Dewpoint: 3.0°C (37°F) [RH = 81%]
Pressure (altimeter): 29.56 inches Hg (1001.0 mb)
Winds: from the SSW (200 degrees) at 9 MPH (8 knots; 4.1 m/s)
Visibility: 6 or more miles (10+ km)
Ceiling: at least 12,000 feet AGL
Clouds: scattered clouds at 2500 feet AGL
scattered clouds at 4000 feet AGL
Weather: no significant weather observed at this time

METAR text: EDDV 121720Z 20004KT 160V220 9999 SCT025 BKN037 05/03 Q1001 NOSIG
Conditions at: EDDV (HANNOVER , DE) observed 1720 UTC 12 November 2019
Temperature: 5.0°C (41°F)
Dewpoint: 3.0°C (37°F) [RH = 87%]
Pressure (altimeter): 29.56 inches Hg (1001.0 mb)
Winds: from the SSW (200 degrees) at 5 MPH (4 knots; 2.1 m/s)
Visibility: 6 or more miles (10+ km)
Ceiling: 3700 feet AGL
Clouds: scattered clouds at 2500 feet AGL
broken clouds at 3700 feet AGL
Weather: no significant weather observed at this time

METAR text: EDDV 121650Z 25004KT 170V280 9999 SCT025 SCT040 05/03 Q1002 NOSIG
Conditions at: EDDV (HANNOVER , DE) observed 1650 UTC 12 November 2019
Temperature: 5.0°C (41°F)
Dewpoint: 3.0°C (37°F) [RH = 87%]
Pressure (altimeter): 29.59 inches Hg (1002.0 mb)
Winds: from the WSW (250 degrees) at 5 MPH (4 knots; 2.1 m/s)
Visibility: 6 or more miles (10+ km)
Ceiling: at least 12,000 feet AGL
Clouds: scattered clouds at 2500 feet AGL
scattered clouds at 4000 feet AGL
Weather: no significant weather observed at this time

METAR text: EDDV 121620Z 27010KT 240V300 9999 FEW027 SCT040 06/02 Q1002 NOSIG
Conditions at: EDDV (HANNOVER , DE) observed 1620 UTC 12 November 2019
Temperature: 6.0°C (43°F)
Dewpoint: 2.0°C (36°F) [RH = 75%]
Pressure (altimeter): 29.59 inches Hg (1002.0 mb)
Winds: from the W (270 degrees) at 12 MPH (10 knots; 5.1 m/s)
Visibility: 6 or more miles (10+ km)
Ceiling: at least 12,000 feet AGL
Clouds: few clouds at 2700 feet AGL
scattered clouds at 4000 feet AGL
Weather: no significant weather observed at this time

METAR text: EDDV 121550Z 17008KT 140V210 9999 FEW036 SCT046 07/02 Q1001 NOSIG
Conditions at: EDDV (HANNOVER , DE) observed 1550 UTC 12 November 2019
Temperature: 7.0°C (45°F)
Dewpoint: 2.0°C (36°F) [RH = 70%]
Pressure (altimeter): 29.56 inches Hg (1001.0 mb)
Winds: from the S (170 degrees) at 9 MPH (8 knots; 4.1 m/s)
Visibility: 6 or more miles (10+ km)
Ceiling: at least 12,000 feet AGL
Clouds: few clouds at 3600 feet AGL
scattered clouds at 4600 feet AGL
Weather: no significant weather observed at this time

METAR text: EDDV 121520Z 17010KT 130V200 9999 FEW035 BKN042 08/01 Q1001 NOSIG
Conditions at: EDDV (HANNOVER , DE) observed 1520 UTC 12 November 2019
Temperature: 8.0°C (46°F)
Dewpoint: 1.0°C (34°F) [RH = 61%]
Pressure (altimeter): 29.56 inches Hg (1001.0 mb)
Winds: from the S (170 degrees) at 12 MPH (10 knots; 5.1 m/s)
Visibility: 6 or more miles (10+ km)
Ceiling: 4200 feet AGL
Clouds: few clouds at 3500 feet AGL
broken clouds at 4200 feet AGL
Weather: no significant weather observed at this time

METAR text: EDDV 121450Z 17008KT 140V200 9999 FEW035 BKN043 08/01 Q1001 NOSIG
Conditions at: EDDV (HANNOVER , DE) observed 1450 UTC 12 November 2019
Temperature: 8.0°C (46°F)
Dewpoint: 1.0°C (34°F) [RH = 61%]
Pressure (altimeter): 29.56 inches Hg (1001.0 mb)
Winds: from the S (170 degrees) at 9 MPH (8 knots; 4.1 m/s)
Visibility: 6 or more miles (10+ km)
Ceiling: 4300 feet AGL
Clouds: few clouds at 3500 feet AGL
broken clouds at 4300 feet AGL
Weather: no significant weather observed at this time

METAR text: EDDV 121420Z 18010KT 150V220 9999 FEW032 BKN038 08/01 Q1001 NOSIG
Conditions at: EDDV (HANNOVER , DE) observed 1420 UTC 12 November 2019
Temperature: 8.0°C (46°F)
Dewpoint: 1.0°C (34°F) [RH = 61%]
Pressure (altimeter): 29.56 inches Hg (1001.0 mb)
Winds: from the S (180 degrees) at 12 MPH (10 knots; 5.1 m/s)
Visibility: 6 or more miles (10+ km)
Ceiling: 3800 feet AGL
Clouds: few clouds at 3200 feet AGL
broken clouds at 3800 feet AGL
Weather: no significant weather observed at this time

METAR text: EDDV 121350Z 18008KT 150V220 9999 FEW032 BKN037 08/02 Q1001 NOSIG
Conditions at: EDDV (HANNOVER , DE) observed 1350 UTC 12 November 2019
Temperature: 8.0°C (46°F)
Dewpoint: 2.0°C (36°F) [RH = 66%]
Pressure (altimeter): 29.56 inches Hg (1001.0 mb)
Winds: from the S (180 degrees) at 9 MPH (8 knots; 4.1 m/s)
Visibility: 6 or more miles (10+ km)
Ceiling: 3700 feet AGL
Clouds: few clouds at 3200 feet AGL
broken clouds at 3700 feet AGL
Weather: no significant weather observed at this time

METAR text: EDDV 121320Z 17008KT 140V200 9999 FEW030 BKN035 BKN047 08/02 Q1001 NOSIG
Conditions at: EDDV (HANNOVER , DE) observed 1320 UTC 12 November 2019
Temperature: 8.0°C (46°F)
Dewpoint: 2.0°C (36°F) [RH = 66%]
Pressure (altimeter): 29.56 inches Hg (1001.0 mb)
Winds: from the S (170 degrees) at 9 MPH (8 knots; 4.1 m/s)
Visibility: 6 or more miles (10+ km)
Ceiling: 3500 feet AGL
Clouds: few clouds at 3000 feet AGL
broken clouds at 3500 feet AGL
broken clouds at 4700 feet AGL
Weather: no significant weather observed at this time

METAR text: EDDV 121250Z 18009KT 130V220 9999 FEW030 BKN036 08/02 Q1001 NOSIG
Conditions at: EDDV (HANNOVER , DE) observed 1250 UTC 12 November 2019
Temperature: 8.0°C (46°F)
Dewpoint: 2.0°C (36°F) [RH = 66%]
Pressure (altimeter): 29.56 inches Hg (1001.0 mb)
Winds: from the S (180 degrees) at 10 MPH (9 knots; 4.6 m/s)
Visibility: 6 or more miles (10+ km)
Ceiling: 3600 feet AGL
Clouds: few clouds at 3000 feet AGL
broken clouds at 3600 feet AGL
Weather: no significant weather observed at this time

METAR text: EDDV 121220Z 18010KT 140V220 9999 FEW029 BKN033 08/02 Q1002 NOSIG
Conditions at: EDDV (HANNOVER , DE) observed 1220 UTC 12 November 2019
Temperature: 8.0°C (46°F)
Dewpoint: 2.0°C (36°F) [RH = 66%]
Pressure (altimeter): 29.59 inches Hg (1002.0 mb)
Winds: from the S (180 degrees) at 12 MPH (10 knots; 5.1 m/s)
Visibility: 6 or more miles (10+ km)
Ceiling: 3300 feet AGL
Clouds: few clouds at 2900 feet AGL
broken clouds at 3300 feet AGL
Weather: no significant weather observed at this time

METAR text: EDDV 121150Z 18010KT 150V220 9999 FEW029 BKN033 07/02 Q1002 NOSIG
Conditions at: EDDV (HANNOVER , DE) observed 1150 UTC 12 November 2019
Temperature: 7.0°C (45°F)
Dewpoint: 2.0°C (36°F) [RH = 70%]
Pressure (altimeter): 29.59 inches Hg (1002.0 mb)
Winds: from the S (180 degrees) at 12 MPH (10 knots; 5.1 m/s)
Visibility: 6 or more miles (10+ km)
Ceiling: 3300 feet AGL
Clouds: few clouds at 2900 feet AGL
broken clouds at 3300 feet AGL
Weather: no significant weather observed at this time

METAR text: EDDV 121120Z 19012KT 9999 SCT029 SCT042 07/02 Q1002 NOSIG
Conditions at: EDDV (HANNOVER , DE) observed 1120 UTC 12 November 2019
Temperature: 7.0°C (45°F)
Dewpoint: 2.0°C (36°F) [RH = 70%]
Pressure (altimeter): 29.59 inches Hg (1002.0 mb)
Winds: from the S (190 degrees) at 14 MPH (12 knots; 6.2 m/s)
Visibility: 6 or more miles (10+ km)
Ceiling: at least 12,000 feet AGL
Clouds: scattered clouds at 2900 feet AGL
scattered clouds at 4200 feet AGL
Weather: no significant weather observed at this time

METAR text: EDDV 121050Z 20010KT 160V230 9999 FEW024 BKN048 07/02 Q1002 NOSIG
Conditions at: EDDV (HANNOVER , DE) observed 1050 UTC 12 November 2019
Temperature: 7.0°C (45°F)
Dewpoint: 2.0°C (36°F) [RH = 70%]
Pressure (altimeter): 29.59 inches Hg (1002.0 mb)
Winds: from the SSW (200 degrees) at 12 MPH (10 knots; 5.1 m/s)
Visibility: 6 or more miles (10+ km)
Ceiling: 4800 feet AGL
Clouds: few clouds at 2400 feet AGL
broken clouds at 4800 feet AGL
Weather: no significant weather observed at this time

METAR text: EDDV 121020Z 20016KT 160V230 9999 FEW024 SCT044 07/01 Q1002 NOSIG
Conditions at: EDDV (HANNOVER , DE) observed 1020 UTC 12 November 2019
Temperature: 7.0°C (45°F)
Dewpoint: 1.0°C (34°F) [RH = 66%]
Pressure (altimeter): 29.59 inches Hg (1002.0 mb)
Winds: from the SSW (200 degrees) at 18 MPH (16 knots; 8.2 m/s)
Visibility: 6 or more miles (10+ km)
Ceiling: at least 12,000 feet AGL
Clouds: few clouds at 2400 feet AGL
scattered clouds at 4400 feet AGL
Weather: no significant weather observed at this time

METAR text: EDDV 120950Z 21013KT 170V240 9999 FEW024 SCT040 08/01 Q1002 NOSIG
Conditions at: EDDV (HANNOVER , DE) observed 0950 UTC 12 November 2019
Temperature: 8.0°C (46°F)
Dewpoint: 1.0°C (34°F) [RH = 61%]
Pressure (altimeter): 29.59 inches Hg (1002.0 mb)
Winds: from the SSW (210 degrees) at 15 MPH (13 knots; 6.7 m/s)
Visibility: 6 or more miles (10+ km)
Ceiling: at least 12,000 feet AGL
Clouds: few clouds at 2400 feet AGL
scattered clouds at 4000 feet AGL
Weather: no significant weather observed at this time

METAR text: EDDV 120920Z 20010KT 160V240 9999 SCT042 07/02 Q1003 NOSIG
Conditions at: EDDV (HANNOVER , DE) observed 0920 UTC 12 November 2019
Temperature: 7.0°C (45°F)
Dewpoint: 2.0°C (36°F) [RH = 70%]
Pressure (altimeter): 29.62 inches Hg (1003.0 mb)
Winds: from the SSW (200 degrees) at 12 MPH (10 knots; 5.1 m/s)
Visibility: 6 or more miles (10+ km)
Ceiling: at least 12,000 feet AGL
Clouds: scattered clouds at 4200 feet AGL
Weather: no significant weather observed at this time

Forecast for: EDDV (HANNOVER , DE)
Text: TAF EDDV 131700Z 1318/1418 20005KT 9999 BKN020
Forecast period: 1800 UTC 13 November 2019 to 0200 UTC 14 November 2019
Forecast type: FROM: standard forecast or significant change
Winds: from the SSW (200 degrees) at 6 MPH (5 knots; 2.6 m/s)
Visibility: 6 or more miles 10+ km)
Ceiling: 2000 feet AGL
Clouds: broken clouds at 2000 feet AGL
Weather: no significant weather forecast for this period
Text: PROB30
Forecast period: 1800 to 2200 UTC 13 November 2019
Forecast type: TEMPORARY: The following changes expected for less than half the time period
Visibility: missing
Ceiling: 1400 feet AGL
Clouds: broken clouds at 1400 feet AGL
Weather: no significant weather forecast for this period
Text: TEMPO 1318/1322 BKN014
Forecast period: 0000 to 0800 UTC 14 November 2019
Forecast type: TEMPORARY: The following changes expected for less than half the time period
Visibility: 2.17 miles (3.49 km)
Ceiling: 900 feet AGL
Clouds: broken clouds at 900 feet AGL
Weather: BR  (mist)
Text: PROB30
Forecast period: 0200 to 0800 UTC 14 November 2019
Forecast type: BECOMING: Conditions expected to become as follows by 0400 UTC 14 November 2019
Winds: from the SE (140 degrees) at 6 MPH (5 knots; 2.6 m/s)
Visibility: 6 or more miles 10+ km)
Ceiling: 2000 feet AGL
Clouds: broken clouds at 2000 feet AGL
Weather: no significant weather forecast for this period
Text: TEMPO 1400/1408 3500 BR BKN009
Forecast period: 0800 to 1800 UTC 14 November 2019
Forecast type: BECOMING: Conditions expected to become as follows by 1000 UTC 14 November 2019
Winds: from the ESE (120 degrees) at 12 MPH (10 knots; 5.1 m/s)
Visibility: 6 or more miles 10+ km)
Ceiling: 2000 feet AGL
Clouds: broken clouds at 2000 feet AGL
Weather: no significant weather forecast for this period